sensor_id;sensor_type;location;lat;lon;timestamp;pressure;altitude;pressure_sealevel;temperature;humidity
34243;BME280;20504;43.214;27.920;2023-02-26T00:00:10;97323.47;;;17.29;100.00
34243;BME280;20504;43.214;27.920;2023-02-26T00:02:43;97300.25;;;17.22;100.00
34243;BME280;20504;43.214;27.920;2023-02-26T00:05:10;97310.63;;;17.37;100.00
34243;BME280;20504;43.214;27.920;2023-02-26T00:07:36;97336.03;;;17.28;100.00
34243;BME280;20504;43.214;27.920;2023-02-26T00:10:06;97331.13;;;17.25;100.00
34243;BME280;20504;43.214;27.920;2023-02-26T00:12:33;97333.28;;;17.16;100.00
34243;BME280;20504;43.214;27.920;2023-02-26T00:14:59;97284.84;;;17.18;100.00
34243;BME280;20504;43.214;27.920;2023-02-26T00:20:03;97264.88;;;17.39;100.00
34243;BME280;20504;43.214;27.920;2023-02-26T00:22:29;97314.31;;;17.18;100.00
34243;BME280;20504;43.214;27.920;2023-02-26T00:24:54;97321.38;;;17.12;100.00
34243;BME280;20504;43.214;27.920;2023-02-26T00:27:20;97258.22;;;17.23;100.00
34243;BME280;20504;43.214;27.920;2023-02-26T00:29:46;97263.44;;;17.18;100.00
34243;BME280;20504;43.214;27.920;2023-02-26T00:32:12;97208.28;;;17.35;100.00
34243;BME280;20504;43.214;27.920;2023-02-26T00:34:38;97208.78;;;17.25;100.00
34243;BME280;20504;43.214;27.920;2023-02-26T00:42:24;97084.66;;;17.20;100.00
34243;BME280;20504;43.214;27.920;2023-02-26T00:44:50;97059.59;;;17.14;100.00
34243;BME280;20504;43.214;27.920;2023-02-26T00:47:28;97075.00;;;17.01;100.00
34243;BME280;20504;43.214;27.920;2023-02-26T00:50:24;96962.81;;;16.99;100.00
34243;BME280;20504;43.214;27.920;2023-02-26T00:55:22;96827.06;;;17.18;100.00
34243;BME280;20504;43.214;27.920;2023-02-26T00:57:47;96843.19;;;17.00;100.00
34243;BME280;20504;43.214;27.920;2023-02-26T01:00:13;96819.78;;;16.95;100.00
34243;BME280;20504;43.214;27.920;2023-02-26T01:02:39;96763.72;;;17.00;100.00
34243;BME280;20504;43.214;27.920;2023-02-26T01:05:06;96688.19;;;16.98;100.00
34243;BME280;20504;43.214;27.920;2023-02-26T01:10:10;96649.44;;;17.12;100.00
34243;BME280;20504;43.214;27.920;2023-02-26T01:12:37;96649.69;;;17.11;100.00
34243;BME280;20504;43.214;27.920;2023-02-26T01:15:04;96663.06;;;16.99;100.00
34243;BME280;20504;43.214;27.920;2023-02-26T01:20:22;96572.09;;;16.87;100.00
34243;BME280;20504;43.214;27.920;2023-02-26T01:25:38;96507.94;;;17.04;100.00
34243;BME280;20504;43.214;27.920;2023-02-26T01:28:05;96508.09;;;16.98;100.00
34243;BME280;20504;43.214;27.920;2023-02-26T01:30:31;96492.84;;;16.98;100.00
34243;BME280;20504;43.214;27.920;2023-02-26T01:35:50;96450.34;;;17.13;100.00
34243;BME280;20504;43.214;27.920;2023-02-26T01:38:28;96489.13;;;16.99;100.00
34243;BME280;20504;43.214;27.920;2023-02-26T01:46:30;96421.50;;;17.04;100.00
34243;BME280;20504;43.214;27.920;2023-02-26T01:48:58;96467.72;;;16.87;100.00
34243;BME280;20504;43.214;27.920;2023-02-26T01:54:20;96437.47;;;16.99;100.00
34243;BME280;20504;43.214;27.920;2023-02-26T01:57:08;96444.59;;;16.93;100.00
34243;BME280;20504;43.214;27.920;2023-02-26T01:59:41;96383.78;;;17.05;100.00
34243;BME280;20504;43.214;27.920;2023-02-26T02:02:09;96375.63;;;17.29;100.00
34243;BME280;20504;43.214;27.920;2023-02-26T02:04:37;96486.22;;;17.01;100.00
34243;BME280;20504;43.214;27.920;2023-02-26T02:07:04;96512.72;;;17.14;100.00
34243;BME280;20504;43.214;27.920;2023-02-26T02:09:30;96538.28;;;17.10;100.00
34243;BME280;20504;43.214;27.920;2023-02-26T02:15:10;96518.31;;;17.12;100.00
34243;BME280;20504;43.214;27.920;2023-02-26T02:20:55;96487.22;;;17.11;100.00
34243;BME280;20504;43.214;27.920;2023-02-26T02:23:47;96514.44;;;17.08;100.00
34243;BME280;20504;43.214;27.920;2023-02-26T02:26:43;96429.13;;;17.40;100.00
34243;BME280;20504;43.214;27.920;2023-02-26T02:34:26;96463.16;;;17.28;100.00
34243;BME280;20504;43.214;27.920;2023-02-26T02:37:15;96498.97;;;17.10;100.00
34243;BME280;20504;43.214;27.920;2023-02-26T02:39:46;96527.72;;;17.03;100.00
34243;BME280;20504;43.214;27.920;2023-02-26T02:44:40;96495.13;;;17.18;100.00
34243;BME280;20504;43.214;27.920;2023-02-26T02:47:09;96518.31;;;17.12;100.00
34243;BME280;20504;43.214;27.920;2023-02-26T02:49:45;96505.25;;;17.16;100.00
34243;BME280;20504;43.214;27.920;2023-02-26T02:52:18;96540.16;;;17.09;100.00
34243;BME280;20504;43.214;27.920;2023-02-26T02:57:24;96516.31;;;17.08;100.00
34243;BME280;20504;43.214;27.920;2023-02-26T02:59:57;96556.59;;;16.89;100.00
34243;BME280;20504;43.214;27.920;2023-02-26T03:02:39;96565.56;;;16.95;100.00
34243;BME280;20504;43.214;27.920;2023-02-26T03:05:06;96526.13;;;16.90;100.00
34243;BME280;20504;43.214;27.920;2023-02-26T03:07:40;96497.22;;;17.16;100.00
34243;BME280;20504;43.214;27.920;2023-02-26T03:10:08;96525.88;;;17.04;100.00
34243;BME280;20504;43.214;27.920;2023-02-26T03:12:34;96569.75;;;17.03;100.00
34243;BME280;20504;43.214;27.920;2023-02-26T03:15:00;96588.72;;;17.01;100.00
34243;BME280;20504;43.214;27.920;2023-02-26T03:17:53;96539.66;;;17.24;100.00
34243;BME280;20504;43.214;27.920;2023-02-26T03:20:31;96579.97;;;17.17;100.00
34243;BME280;20504;43.214;27.920;2023-02-26T03:23:24;96620.59;;;17.03;100.00
34243;BME280;20504;43.214;27.920;2023-02-26T03:25:53;96611.16;;;17.12;100.00
34243;BME280;20504;43.214;27.920;2023-02-26T03:31:28;96576.22;;;17.18;100.00
34243;BME280;20504;43.214;27.920;2023-02-26T03:34:12;96618.72;;;17.03;100.00
34243;BME280;20504;43.214;27.920;2023-02-26T03:36:46;96669.78;;;16.90;100.00
34243;BME280;20504;43.214;27.920;2023-02-26T03:39:53;96537.59;;;17.14;100.00
34243;BME280;20504;43.214;27.920;2023-02-26T03:45:08;96616.81;;;17.27;100.00
34243;BME280;20504;43.214;27.920;2023-02-26T03:47:38;96680.25;;;17.26;100.00
34243;BME280;20504;43.214;27.920;2023-02-26T03:52:56;96759.78;;;17.14;100.00
34243;BME280;20504;43.214;27.920;2023-02-26T03:55:56;96745.47;;;17.20;100.00
34243;BME280;20504;43.214;27.920;2023-02-26T03:58:23;96789.47;;;17.13;100.00
34243;BME280;20504;43.214;27.920;2023-02-26T04:00:53;96725.66;;;17.56;100.00
34243;BME280;20504;43.214;27.920;2023-02-26T04:03:39;96840.50;;;17.53;100.00
34243;BME280;20504;43.214;27.920;2023-02-26T04:06:07;96909.97;;;17.36;100.00
34243;BME280;20504;43.214;27.920;2023-02-26T04:08:33;96967.66;;;17.20;100.00
34243;BME280;20504;43.214;27.920;2023-02-26T04:11:05;96907.19;;;17.31;100.00
34243;BME280;20504;43.214;27.920;2023-02-26T04:13:32;96951.91;;;17.42;100.00
34243;BME280;20504;43.214;27.920;2023-02-26T04:15:58;96975.69;;;17.50;100.00
34243;BME280;20504;43.214;27.920;2023-02-26T04:18:23;96997.66;;;17.41;100.00
34243;BME280;20504;43.214;27.920;2023-02-26T04:20:49;97034.34;;;17.40;100.00
34243;BME280;20504;43.214;27.920;2023-02-26T04:23:15;97027.47;;;17.44;100.00
34243;BME280;20504;43.214;27.920;2023-02-26T04:25:40;97082.69;;;17.27;100.00
34243;BME280;20504;43.214;27.920;2023-02-26T04:28:06;97025.03;;;17.43;100.00
34243;BME280;20504;43.214;27.920;2023-02-26T04:30:31;97041.69;;;17.15;100.00
34243;BME280;20504;43.214;27.920;2023-02-26T04:32:57;97026.44;;;17.45;100.00
34243;BME280;20504;43.214;27.920;2023-02-26T04:35:22;97058.75;;;17.32;100.00
34243;BME280;20504;43.214;27.920;2023-02-26T04:37:48;97048.69;;;17.27;100.00
34243;BME280;20504;43.214;27.920;2023-02-26T04:40:13;96971.03;;;17.58;100.00
34243;BME280;20504;43.214;27.920;2023-02-26T04:42:39;96967.97;;;17.72;100.00
34243;BME280;20504;43.214;27.920;2023-02-26T04:45:05;97028.34;;;17.56;100.00
34243;BME280;20504;43.214;27.920;2023-02-26T04:47:31;97028.94;;;17.59;100.00
34243;BME280;20504;43.214;27.920;2023-02-26T04:49:56;97039.41;;;17.60;100.00
34243;BME280;20504;43.214;27.920;2023-02-26T04:52:21;97033.78;;;17.68;100.00
34243;BME280;20504;43.214;27.920;2023-02-26T04:54:47;96999.53;;;17.70;100.00
34243;BME280;20504;43.214;27.920;2023-02-26T04:57:12;97039.50;;;17.83;100.00
34243;BME280;20504;43.214;27.920;2023-02-26T04:59:38;97062.81;;;17.83;100.00
34243;BME280;20504;43.214;27.920;2023-02-26T05:02:04;97094.03;;;17.77;100.00
34243;BME280;20504;43.214;27.920;2023-02-26T05:04:30;97122.56;;;17.72;100.00
34243;BME280;20504;43.214;27.920;2023-02-26T05:06:56;97160.88;;;17.54;100.00
34243;BME280;20504;43.214;27.920;2023-02-26T05:09:21;97151.44;;;17.70;100.00
34243;BME280;20504;43.214;27.920;2023-02-26T05:11:47;97137.59;;;17.73;100.00
34243;BME280;20504;43.214;27.920;2023-02-26T05:14:13;97177.56;;;17.56;100.00
34243;BME280;20504;43.214;27.920;2023-02-26T05:16:39;97136.00;;;17.83;100.00
34243;BME280;20504;43.214;27.920;2023-02-26T05:19:04;97202.47;;;17.56;100.00
34243;BME280;20504;43.214;27.920;2023-02-26T05:21:30;97194.22;;;17.58;100.00
34243;BME280;20504;43.214;27.920;2023-02-26T05:23:55;97197.44;;;17.48;100.00
34243;BME280;20504;43.214;27.920;2023-02-26T05:26:21;97158.56;;;17.58;100.00
34243;BME280;20504;43.214;27.920;2023-02-26T05:28:47;97160.78;;;17.61;100.00
34243;BME280;20504;43.214;27.920;2023-02-26T05:31:14;97164.28;;;17.61;100.00
34243;BME280;20504;43.214;27.920;2023-02-26T05:33:39;97165.94;;;17.62;100.00
34243;BME280;20504;43.214;27.920;2023-02-26T05:36:06;97123.81;;;17.88;100.00
34243;BME280;20504;43.214;27.920;2023-02-26T05:38:32;97125.38;;;18.07;100.00
34243;BME280;20504;43.214;27.920;2023-02-26T05:40:58;97173.47;;;18.02;100.00
34243;BME280;20504;43.214;27.920;2023-02-26T05:43:24;97253.78;;;17.78;100.00
34243;BME280;20504;43.214;27.920;2023-02-26T05:45:51;97267.50;;;17.70;100.00
34243;BME280;20504;43.214;27.920;2023-02-26T05:48:17;97242.38;;;17.83;100.00
34243;BME280;20504;43.214;27.920;2023-02-26T05:50:42;97265.66;;;17.64;100.00
34243;BME280;20504;43.214;27.920;2023-02-26T05:53:08;97228.25;;;17.76;100.00
34243;BME280;20504;43.214;27.920;2023-02-26T05:55:35;97244.41;;;17.69;100.00
34243;BME280;20504;43.214;27.920;2023-02-26T05:58:00;97225.13;;;17.79;100.00
34243;BME280;20504;43.214;27.920;2023-02-26T06:00:26;97261.91;;;17.72;100.00
34243;BME280;20504;43.214;27.920;2023-02-26T06:02:52;97291.22;;;17.67;100.00
34243;BME280;20504;43.214;27.920;2023-02-26T06:05:18;97259.59;;;17.75;100.00
34243;BME280;20504;43.214;27.920;2023-02-26T06:07:43;97274.31;;;17.84;100.00
34243;BME280;20504;43.214;27.920;2023-02-26T06:10:10;97293.97;;;17.78;100.00
34243;BME280;20504;43.214;27.920;2023-02-26T06:12:36;97228.34;;;18.17;100.00
34243;BME280;20504;43.214;27.920;2023-02-26T06:15:02;97319.47;;;17.88;100.00
34243;BME280;20504;43.214;27.920;2023-02-26T06:17:28;97337.63;;;17.85;100.00
34243;BME280;20504;43.214;27.920;2023-02-26T06:19:53;97369.84;;;17.79;100.00
34243;BME280;20504;43.214;27.920;2023-02-26T06:22:19;97339.56;;;17.97;100.00
34243;BME280;20504;43.214;27.920;2023-02-26T06:24:44;97375.75;;;17.88;100.00
34243;BME280;20504;43.214;27.920;2023-02-26T06:27:10;97384.50;;;17.76;100.00
34243;BME280;20504;43.214;27.920;2023-02-26T06:29:35;97404.63;;;17.85;100.00
34243;BME280;20504;43.214;27.920;2023-02-26T06:32:03;97407.25;;;17.92;100.00
34243;BME280;20504;43.214;27.920;2023-02-26T06:34:28;97428.44;;;17.75;100.00
34243;BME280;20504;43.214;27.920;2023-02-26T06:36:55;97398.09;;;18.00;100.00
34243;BME280;20504;43.214;27.920;2023-02-26T06:39:20;97385.22;;;18.08;100.00
34243;BME280;20504;43.214;27.920;2023-02-26T06:41:46;97484.59;;;17.57;100.00
34243;BME280;20504;43.214;27.920;2023-02-26T06:44:11;97456.03;;;17.76;100.00
34243;BME280;20504;43.214;27.920;2023-02-26T06:46:37;97453.97;;;17.78;100.00
34243;BME280;20504;43.214;27.920;2023-02-26T06:49:02;97493.63;;;17.69;100.00
34243;BME280;20504;43.214;27.920;2023-02-26T06:51:28;97476.13;;;17.92;100.00
34243;BME280;20504;43.214;27.920;2023-02-26T06:53:55;97532.38;;;17.60;100.00
34243;BME280;20504;43.214;27.920;2023-02-26T06:56:21;97528.84;;;17.73;100.00
34243;BME280;20504;43.214;27.920;2023-02-26T06:58:47;97494.59;;;18.00;100.00
34243;BME280;20504;43.214;27.920;2023-02-26T07:01:12;97554.38;;;17.75;100.00
34243;BME280;20504;43.214;27.920;2023-02-26T07:03:38;97528.63;;;17.74;100.00
34243;BME280;20504;43.214;27.920;2023-02-26T07:06:05;97578.06;;;17.78;100.00
34243;BME280;20504;43.214;27.920;2023-02-26T07:08:33;97581.53;;;17.85;100.00
34243;BME280;20504;43.214;27.920;2023-02-26T07:10:58;97630.19;;;17.82;100.00
34243;BME280;20504;43.214;27.920;2023-02-26T07:13:24;97626.91;;;17.80;100.00
34243;BME280;20504;43.214;27.920;2023-02-26T07:15:49;97598.53;;;18.04;100.00
34243;BME280;20504;43.214;27.920;2023-02-26T07:18:15;97651.84;;;17.81;100.00
34243;BME280;20504;43.214;27.920;2023-02-26T07:20:41;97664.22;;;17.82;100.00
34243;BME280;20504;43.214;27.920;2023-02-26T07:23:07;97645.22;;;17.90;100.00
34243;BME280;20504;43.214;27.920;2023-02-26T07:25:33;97616.88;;;18.01;100.00
34243;BME280;20504;43.214;27.920;2023-02-26T07:27:58;97644.06;;;18.11;100.00
34243;BME280;20504;43.214;27.920;2023-02-26T07:30:24;97670.63;;;18.19;100.00
34243;BME280;20504;43.214;27.920;2023-02-26T07:32:50;97672.16;;;18.33;100.00
34243;BME280;20504;43.214;27.920;2023-02-26T07:35:16;97773.00;;;18.09;100.00
34243;BME280;20504;43.214;27.920;2023-02-26T07:37:41;97782.00;;;18.22;100.00
34243;BME280;20504;43.214;27.920;2023-02-26T07:40:07;97805.56;;;18.13;100.00
34243;BME280;20504;43.214;27.920;2023-02-26T07:42:33;97772.19;;;18.47;100.00
34243;BME280;20504;43.214;27.920;2023-02-26T07:44:59;97843.69;;;18.22;100.00
34243;BME280;20504;43.214;27.920;2023-02-26T07:47:24;97831.09;;;18.29;100.00
34243;BME280;20504;43.214;27.920;2023-02-26T07:49:51;97834.75;;;18.41;100.00
34243;BME280;20504;43.214;27.920;2023-02-26T07:52:16;97900.44;;;18.25;100.00
34243;BME280;20504;43.214;27.920;2023-02-26T07:54:42;97896.91;;;18.31;100.00
34243;BME280;20504;43.214;27.920;2023-02-26T07:57:08;97885.53;;;18.42;100.00
34243;BME280;20504;43.214;27.920;2023-02-26T07:59:33;97893.03;;;18.72;100.00
34243;BME280;20504;43.214;27.920;2023-02-26T08:01:59;97947.81;;;18.64;100.00
34243;BME280;20504;43.214;27.920;2023-02-26T08:04:24;97997.75;;;18.59;100.00
34243;BME280;20504;43.214;27.920;2023-02-26T08:06:50;97985.75;;;18.81;100.00
34243;BME280;20504;43.214;27.920;2023-02-26T08:09:15;98034.69;;;18.76;100.00
34243;BME280;20504;43.214;27.920;2023-02-26T08:11:41;98051.44;;;18.72;100.00
34243;BME280;20504;43.214;27.920;2023-02-26T08:14:08;98049.78;;;18.71;100.00
34243;BME280;20504;43.214;27.920;2023-02-26T08:16:33;98004.41;;;19.08;100.00
34243;BME280;20504;43.214;27.920;2023-02-26T08:18:59;98071.81;;;18.99;100.00
34243;BME280;20504;43.214;27.920;2023-02-26T08:21:25;98099.03;;;19.10;100.00
34243;BME280;20504;43.214;27.920;2023-02-26T08:23:51;98151.72;;;19.11;100.00
34243;BME280;20504;43.214;27.920;2023-02-26T08:26:17;98188.53;;;19.03;100.00
34243;BME280;20504;43.214;27.920;2023-02-26T08:28:42;98190.97;;;19.12;100.00
34243;BME280;20504;43.214;27.920;2023-02-26T08:31:08;98198.41;;;19.23;100.00
34243;BME280;20504;43.214;27.920;2023-02-26T08:33:34;98229.00;;;19.09;100.00
34243;BME280;20504;43.214;27.920;2023-02-26T08:35:59;98231.06;;;19.20;100.00
34243;BME280;20504;43.214;27.920;2023-02-26T08:38:27;98199.13;;;19.63;100.00
34243;BME280;20504;43.214;27.920;2023-02-26T08:40:52;98245.22;;;19.66;100.00
34243;BME280;20504;43.214;27.920;2023-02-26T08:43:19;98263.84;;;19.75;100.00
34243;BME280;20504;43.214;27.920;2023-02-26T08:45:45;98280.72;;;19.88;100.00
34243;BME280;20504;43.214;27.920;2023-02-26T08:48:11;98361.69;;;19.60;100.00
34243;BME280;20504;43.214;27.920;2023-02-26T08:50:36;98365.38;;;19.79;100.00
34243;BME280;20504;43.214;27.920;2023-02-26T08:53:03;98312.09;;;20.08;100.00
34243;BME280;20504;43.214;27.920;2023-02-26T08:55:29;98380.78;;;20.23;100.00
34243;BME280;20504;43.214;27.920;2023-02-26T08:57:54;98421.81;;;20.12;100.00
34243;BME280;20504;43.214;27.920;2023-02-26T09:00:20;98406.28;;;20.14;100.00
34243;BME280;20504;43.214;27.920;2023-02-26T09:02:46;98385.94;;;20.25;100.00
34243;BME280;20504;43.214;27.920;2023-02-26T09:05:11;98372.44;;;20.45;100.00
34243;BME280;20504;43.214;27.920;2023-02-26T09:07:40;98410.69;;;20.60;100.00
34243;BME280;20504;43.214;27.920;2023-02-26T09:10:05;98399.66;;;21.06;100.00
34243;BME280;20504;43.214;27.920;2023-02-26T09:12:32;98469.00;;;20.86;100.00
34243;BME280;20504;43.214;27.920;2023-02-26T09:14:57;98422.59;;;21.22;100.00
34243;BME280;20504;43.214;27.920;2023-02-26T09:17:25;98491.41;;;20.80;100.00
34243;BME280;20504;43.214;27.920;2023-02-26T09:19:50;98483.03;;;21.01;100.00
34243;BME280;20504;43.214;27.920;2023-02-26T09:22:16;98506.25;;;20.96;100.00
34243;BME280;20504;43.214;27.920;2023-02-26T09:24:42;98467.78;;;21.20;100.00
34243;BME280;20504;43.214;27.920;2023-02-26T09:27:07;98515.91;;;21.16;100.00
34243;BME280;20504;43.214;27.920;2023-02-26T09:29:33;98505.13;;;21.16;100.00
34243;BME280;20504;43.214;27.920;2023-02-26T09:31:58;98515.28;;;21.14;100.00
34243;BME280;20504;43.214;27.920;2023-02-26T09:34:24;98523.53;;;21.20;100.00
34243;BME280;20504;43.214;27.920;2023-02-26T09:36:50;98577.34;;;20.95;100.00
34243;BME280;20504;43.214;27.920;2023-02-26T09:39:15;98537.72;;;21.08;100.00
34243;BME280;20504;43.214;27.920;2023-02-26T09:41:46;98508.44;;;21.25;100.00
34243;BME280;20504;43.214;27.920;2023-02-26T09:44:31;98530.00;;;21.25;100.00
34243;BME280;20504;43.214;27.920;2023-02-26T09:47:35;98544.72;;;21.16;100.00
34243;BME280;20504;43.214;27.920;2023-02-26T09:50:25;98513.38;;;21.28;100.00
34243;BME280;20504;43.214;27.920;2023-02-26T09:55:42;98500.56;;;21.17;100.00
34243;BME280;20504;43.214;27.920;2023-02-26T09:58:35;98497.34;;;21.40;100.00
34243;BME280;20504;43.214;27.920;2023-02-26T10:01:45;98568.00;;;20.97;100.00
34243;BME280;20504;43.214;27.920;2023-02-26T10:04:24;98589.41;;;20.79;100.00
34243;BME280;20504;43.214;27.920;2023-02-26T10:12:45;98569.22;;;21.08;100.00
34243;BME280;20504;43.214;27.920;2023-02-26T10:23:41;98583.41;;;20.83;100.00
34243;BME280;20504;43.214;27.920;2023-02-26T10:26:38;98586.94;;;20.77;100.00
34243;BME280;20504;43.214;27.920;2023-02-26T10:29:32;98551.47;;;20.80;100.00
34243;BME280;20504;43.214;27.920;2023-02-26T10:35:04;98569.19;;;20.50;100.00
34243;BME280;20504;43.214;27.920;2023-02-26T10:37:50;98569.78;;;20.39;100.00
34243;BME280;20504;43.214;27.920;2023-02-26T10:40:23;98517.19;;;20.43;100.00
34243;BME280;20504;43.214;27.920;2023-02-26T10:42:58;98505.59;;;20.49;100.00
34243;BME280;20504;43.214;27.920;2023-02-26T10:45:49;98479.88;;;20.66;100.00
34243;BME280;20504;43.214;27.920;2023-02-26T10:51:13;98480.00;;;20.84;100.00
34243;BME280;20504;43.214;27.920;2023-02-26T10:53:42;98489.75;;;20.85;100.00
34243;BME280;20504;43.214;27.920;2023-02-26T10:56:14;98479.78;;;20.86;100.00
34243;BME280;20504;43.214;27.920;2023-02-26T10:58:41;98508.06;;;20.57;100.00
34243;BME280;20504;43.214;27.920;2023-02-26T11:01:15;98514.88;;;20.60;100.00
34243;BME280;20504;43.214;27.920;2023-02-26T11:03:44;98492.69;;;20.71;100.00
34243;BME280;20504;43.214;27.920;2023-02-26T11:06:26;98482.97;;;20.63;100.00
34243;BME280;20504;43.214;27.920;2023-02-26T11:08:54;98505.50;;;20.75;100.00
34243;BME280;20504;43.214;27.920;2023-02-26T11:11:47;98567.53;;;20.49;100.00
34243;BME280;20504;43.214;27.920;2023-02-26T11:14:13;98560.69;;;20.00;100.00
34243;BME280;20504;43.214;27.920;2023-02-26T11:16:49;98556.97;;;20.41;100.00
34243;BME280;20504;43.214;27.920;2023-02-26T11:19:20;98581.38;;;20.39;100.00
34243;BME280;20504;43.214;27.920;2023-02-26T11:21:49;98539.13;;;20.26;100.00
34243;BME280;20504;43.214;27.920;2023-02-26T11:24:42;98573.09;;;20.54;100.00
34243;BME280;20504;43.214;27.920;2023-02-26T11:27:20;98562.53;;;20.66;100.00
34243;BME280;20504;43.214;27.920;2023-02-26T11:29:48;98588.00;;;20.56;100.00
34243;BME280;20504;43.214;27.920;2023-02-26T11:32:22;98581.59;;;20.44;100.00
34243;BME280;20504;43.214;27.920;2023-02-26T11:34:51;98573.31;;;20.52;100.00
34243;BME280;20504;43.214;27.920;2023-02-26T11:37:24;98513.69;;;20.42;100.00
34243;BME280;20504;43.214;27.920;2023-02-26T11:40:16;98552.00;;;20.51;100.00
34243;BME280;20504;43.214;27.920;2023-02-26T11:42:59;98562.13;;;20.49;100.00
34243;BME280;20504;43.214;27.920;2023-02-26T11:45:27;98574.34;;;20.45;100.00
34243;BME280;20504;43.214;27.920;2023-02-26T11:48:05;98540.75;;;20.74;100.00
34243;BME280;20504;43.214;27.920;2023-02-26T11:50:39;98596.06;;;20.63;100.00
34243;BME280;20504;43.214;27.920;2023-02-26T11:55:58;98616.78;;;20.63;100.00
34243;BME280;20504;43.214;27.920;2023-02-26T11:58:27;98619.09;;;20.52;100.00
34243;BME280;20504;43.214;27.920;2023-02-26T12:00:57;98623.44;;;20.67;100.00
34243;BME280;20504;43.214;27.920;2023-02-26T12:03:26;98640.41;;;20.61;100.00
34243;BME280;20504;43.214;27.920;2023-02-26T12:05:57;98634.81;;;20.55;100.00
34243;BME280;20504;43.214;27.920;2023-02-26T12:14:12;98672.72;;;20.61;100.00
34243;BME280;20504;43.214;27.920;2023-02-26T12:36:01;98798.06;;;20.76;100.00
34243;BME280;20504;43.214;27.920;2023-02-26T12:38:46;98814.84;;;20.65;100.00
34243;BME280;20504;43.214;27.920;2023-02-26T12:41:33;98795.78;;;20.73;100.00
34243;BME280;20504;43.214;27.920;2023-02-26T13:06:18;98836.38;;;20.59;100.00
34243;BME280;20504;43.214;27.920;2023-02-26T13:16:56;98871.50;;;20.37;100.00
34243;BME280;20504;43.214;27.920;2023-02-26T13:21:58;98872.13;;;20.39;100.00
34243;BME280;20504;43.214;27.920;2023-02-26T13:24:33;98885.16;;;20.36;100.00
34243;BME280;20504;43.214;27.920;2023-02-26T13:27:00;98892.72;;;20.12;100.00
34243;BME280;20504;43.214;27.920;2023-02-26T13:29:32;98875.34;;;20.15;100.00
34243;BME280;20504;43.214;27.920;2023-02-26T13:32:02;98879.88;;;20.14;100.00
34243;BME280;20504;43.214;27.920;2023-02-26T13:34:34;98820.00;;;20.60;100.00
34243;BME280;20504;43.214;27.920;2023-02-26T13:37:03;98845.31;;;20.66;100.00
34243;BME280;20504;43.214;27.920;2023-02-26T13:44:52;98901.59;;;20.47;100.00
34243;BME280;20504;43.214;27.920;2023-02-26T13:47:36;98918.59;;;20.48;100.00
34243;BME280;20504;43.214;27.920;2023-02-26T13:55:48;98990.81;;;20.10;100.00
34243;BME280;20504;43.214;27.920;2023-02-26T13:58:29;98960.97;;;20.05;100.00
34243;BME280;20504;43.214;27.920;2023-02-26T14:04:08;98959.00;;;20.26;100.00
34243;BME280;20504;43.214;27.920;2023-02-26T14:07:13;98980.25;;;20.08;100.00
34243;BME280;20504;43.214;27.920;2023-02-26T14:09:58;98973.19;;;20.07;100.00
34243;BME280;20504;43.214;27.920;2023-02-26T14:12:34;98985.38;;;20.03;100.00
34243;BME280;20504;43.214;27.920;2023-02-26T14:17:46;98968.56;;;19.94;100.00
34243;BME280;20504;43.214;27.920;2023-02-26T14:20:35;98976.47;;;20.03;100.00
34243;BME280;20504;43.214;27.920;2023-02-26T14:25:47;98951.59;;;20.29;100.00
34243;BME280;20504;43.214;27.920;2023-02-26T14:31:17;98968.38;;;20.31;100.00
34243;BME280;20504;43.214;27.920;2023-02-26T14:34:06;98971.00;;;20.17;100.00
34243;BME280;20504;43.214;27.920;2023-02-26T14:36:40;98999.56;;;20.18;100.00
34243;BME280;20504;43.214;27.920;2023-02-26T14:42:11;98992.09;;;20.14;100.00
34243;BME280;20504;43.214;27.920;2023-02-26T14:44:42;99041.28;;;20.08;100.00
34243;BME280;20504;43.214;27.920;2023-02-26T14:47:09;99051.41;;;20.06;100.00
34243;BME280;20504;43.214;27.920;2023-02-26T14:49:38;99023.59;;;20.20;100.00
34243;BME280;20504;43.214;27.920;2023-02-26T14:55:32;99029.75;;;20.14;100.00
34243;BME280;20504;43.214;27.920;2023-02-26T15:00:52;99046.13;;;20.12;100.00
34243;BME280;20504;43.214;27.920;2023-02-26T15:11:46;99076.28;;;20.08;100.00
34243;BME280;20504;43.214;27.920;2023-02-26T15:25:04;99104.94;;;19.94;100.00
34243;BME280;20504;43.214;27.920;2023-02-26T15:27:32;99087.00;;;20.01;100.00
34243;BME280;20504;43.214;27.920;2023-02-26T15:29:58;99093.91;;;19.89;100.00
34243;BME280;20504;43.214;27.920;2023-02-26T15:32:29;99098.75;;;19.93;100.00
34243;BME280;20504;43.214;27.920;2023-02-26T15:35:02;99082.31;;;20.10;100.00
34243;BME280;20504;43.214;27.920;2023-02-26T15:37:29;99108.28;;;19.96;100.00
34243;BME280;20504;43.214;27.920;2023-02-26T15:40:02;99079.31;;;19.98;100.00
34243;BME280;20504;43.214;27.920;2023-02-26T15:42:33;99114.28;;;19.98;100.00
34243;BME280;20504;43.214;27.920;2023-02-26T15:45:04;99100.69;;;20.06;100.00
34243;BME280;20504;43.214;27.920;2023-02-26T15:47:34;99115.28;;;19.90;100.00
34243;BME280;20504;43.214;27.920;2023-02-26T15:49:59;99126.09;;;19.97;100.00
34243;BME280;20504;43.214;27.920;2023-02-26T15:52:27;99132.25;;;19.91;100.00
34243;BME280;20504;43.214;27.920;2023-02-26T15:55:03;99065.78;;;20.13;100.00
34243;BME280;20504;43.214;27.920;2023-02-26T15:57:30;99120.75;;;20.04;100.00
34243;BME280;20504;43.214;27.920;2023-02-26T16:00:08;99133.56;;;20.02;100.00
34243;BME280;20504;43.214;27.920;2023-02-26T16:02:41;99105.16;;;20.20;100.00
34243;BME280;20504;43.214;27.920;2023-02-26T16:05:07;99081.56;;;20.22;100.00